Time;durP1;ratioP1;P1;durP2;ratioP2;P2;SDS_P1;SDS_P2;PMS_P1;PMS_P2;Temp;Humidity;BMP_temperature;BMP_pressure;BME280_temperature;BME280_humidity;BME280_pressure;Samples;Min_cycle;Max_cycle;Signal;HPM_P1;HPM_P2
2022/10/26 00:32:53;;;;;;;17.67;6.28;;;9.60;99.90;;;;;;5060958;28;20585;-86
2022/10/26 00:35:19;;;;;;;14.40;5.88;;;9.60;99.90;;;;;;5074440;28;20067;-86
2022/10/26 00:37:44;;;;;;;14.10;6.30;;;9.60;99.90;;;;;;5067821;28;20108;-86
2022/10/26 00:40:10;;;;;;;17.63;6.65;;;9.60;99.90;;;;;;5064385;28;20057;-85
2022/10/26 00:42:36;;;;;;;14.48;6.93;;;9.60;99.90;;;;;;5053029;28;20088;-86
2022/10/26 00:45:16;;;;;;;16.50;6.88;;;9.60;99.90;;;;;;5060850;28;20049;-86
2022/10/26 00:47:47;;;;;;;19.58;6.32;;;9.50;99.90;;;;;;5073110;28;20087;-86
2022/10/26 00:50:23;;;;;;;15.40;6.07;;;9.60;99.90;;;;;;5062391;28;20475;-87
2022/10/26 00:52:51;;;;;;;13.48;6.53;;;9.60;99.90;;;;;;5044812;28;20036;-88
2022/10/26 00:55:20;;;;;;;18.00;5.97;;;9.50;99.90;;;;;;5047979;28;20131;-87
2022/10/26 00:57:48;;;;;;;10.88;6.25;;;9.50;99.90;;;;;;5074645;28;20131;-87
2022/10/26 01:00:14;;;;;;;13.73;5.82;;;9.50;99.90;;;;;;5067659;28;20052;-87
2022/10/26 01:02:40;;;;;;;17.38;6.45;;;9.40;99.90;;;;;;5060255;28;20036;-87
2022/10/26 01:05:06;;;;;;;9.93;6.15;;;9.40;99.90;;;;;;5064310;28;20109;-87
2022/10/26 01:07:33;;;;;;;16.25;6.45;;;9.40;99.90;;;;;;5060920;28;20040;-87
2022/10/26 01:10:00;;;;;;;15.07;5.95;;;9.30;99.90;;;;;;5080468;28;20048;-87
2022/10/26 01:12:25;;;;;;;13.60;6.70;;;9.40;99.90;;;;;;5078719;28;20052;-88
2022/10/26 01:14:51;;;;;;;15.38;6.63;;;9.30;99.90;;;;;;5063232;28;20041;-87
2022/10/26 01:17:48;;;;;;;13.32;6.28;;;9.30;99.90;;;;;;5064488;28;20076;-87
2022/10/26 01:20:16;;;;;;;13.25;6.47;;;9.20;99.90;;;;;;5065070;28;20052;-87
2022/10/26 01:23:04;;;;;;;10.88;5.57;;;9.20;99.90;;;;;;5073912;28;20051;-88
2022/10/26 01:26:05;;;;;;;10.32;4.72;;;9.20;99.90;;;;;;5074659;28;20056;-87
2022/10/26 01:29:06;;;;;;;12.45;5.18;;;9.10;99.90;;;;;;5074102;28;20052;-88
2022/10/26 01:31:43;;;;;;;10.98;5.45;;;9.20;99.90;;;;;;5059540;28;20053;-87
2022/10/26 01:34:16;;;;;;;11.48;6.25;;;9.10;99.90;;;;;;5074058;28;20060;-87
2022/10/26 01:36:51;;;;;;;13.07;6.75;;;9.20;99.90;;;;;;5061277;28;20041;-88
2022/10/26 01:39:26;;;;;;;15.65;6.40;;;9.10;99.90;;;;;;5071382;28;20108;-88
2022/10/26 01:41:58;;;;;;;10.82;5.20;;;9.10;99.90;;;;;;5086390;28;20048;-87
2022/10/26 01:44:27;;;;;;;12.23;5.50;;;9.10;99.90;;;;;;5086987;28;20041;-87
2022/10/26 01:46:56;;;;;;;13.68;6.15;;;9.00;99.90;;;;;;5078480;28;20126;-87
2022/10/26 01:49:26;;;;;;;10.65;6.07;;;9.00;99.90;;;;;;5059419;28;20040;-87
2022/10/26 01:51:52;;;;;;;15.43;5.82;;;9.00;99.90;;;;;;5060063;28;20519;-88
2022/10/26 01:54:18;;;;;;;11.20;6.10;;;9.00;99.90;;;;;;5048851;28;20075;-88
2022/10/26 01:56:48;;;;;;;9.98;4.97;;;9.00;99.90;;;;;;5048849;28;20086;-88
2022/10/26 01:59:42;;;;;;;13.93;5.95;;;9.00;99.90;;;;;;5067246;28;20615;-88
2022/10/26 02:02:29;;;;;;;16.38;6.90;;;9.00;99.90;;;;;;5083217;28;20455;-88
2022/10/26 02:05:38;;;;;;;12.60;5.70;;;9.00;99.90;;;;;;5069472;28;20056;-88
2022/10/26 02:08:29;;;;;;;13.48;6.85;;;8.90;99.90;;;;;;5004771;28;20037;-87
2022/10/26 02:11:17;;;;;;;12.80;6.07;;;8.90;99.90;;;;;;5061452;28;20052;-87
2022/10/26 02:14:07;;;;;;;10.90;6.47;;;8.90;99.90;;;;;;5071164;28;20132;-88
2022/10/26 02:16:39;;;;;;;14.20;5.50;;;8.90;99.90;;;;;;5063070;28;20056;-87
2022/10/26 02:19:14;;;;;;;12.45;6.20;;;8.90;99.90;;;;;;5054849;28;20048;-86
2022/10/26 02:21:45;;;;;;;13.95;5.75;;;9.00;99.90;;;;;;5064015;28;20033;-87
2022/10/26 02:24:13;;;;;;;14.70;6.40;;;8.90;99.90;;;;;;5069399;28;20056;-86
2022/10/26 02:26:42;;;;;;;8.85;5.57;;;8.90;99.90;;;;;;5059190;28;20064;-87
2022/10/26 02:29:13;;;;;;;13.10;5.70;;;8.90;99.90;;;;;;5073257;28;20624;-86
2022/10/26 02:31:41;;;;;;;11.45;5.70;;;8.90;99.90;;;;;;5058123;28;20049;-87
2022/10/26 02:34:10;;;;;;;20.08;6.07;;;8.90;99.90;;;;;;5059798;28;20115;-87
2022/10/26 02:36:41;;;;;;;12.50;5.40;;;8.90;99.90;;;;;;5044883;28;20049;-86
2022/10/26 02:39:09;;;;;;;13.63;5.32;;;8.90;99.90;;;;;;5057459;28;20028;-87
2022/10/26 02:41:38;;;;;;;13.40;5.78;;;8.90;99.90;;;;;;5061173;28;20053;-86
2022/10/26 02:44:25;;;;;;;19.65;7.05;;;8.90;99.90;;;;;;5059179;28;20045;-86
2022/10/26 02:46:51;;;;;;;10.30;6.15;;;8.90;99.90;;;;;;5059874;28;20064;-87
2022/10/26 02:49:18;;;;;;;10.57;5.63;;;8.90;99.90;;;;;;5075534;28;20058;-86
2022/10/26 02:51:53;;;;;;;11.38;6.10;;;8.90;99.90;;;;;;5066773;28;20059;-86
2022/10/26 02:54:41;;;;;;;17.75;6.22;;;8.90;99.90;;;;;;5066047;28;20048;-86
2022/10/26 02:57:13;;;;;;;17.80;6.15;;;8.90;99.90;;;;;;5068213;28;20044;-86
2022/10/26 02:59:46;;;;;;;13.35;7.05;;;8.90;99.90;;;;;;5047121;28;20055;-86
2022/10/26 03:02:15;;;;;;;11.50;6.38;;;8.90;99.90;;;;;;5066251;28;20055;-86
2022/10/26 03:04:41;;;;;;;12.57;6.85;;;8.90;99.90;;;;;;5043016;28;20055;-86
2022/10/26 03:07:06;;;;;;;15.32;6.82;;;8.90;99.90;;;;;;5058831;28;20101;-86
2022/10/26 03:09:32;;;;;;;14.70;7.55;;;8.90;99.90;;;;;;5075895;28;20048;-86
2022/10/26 03:11:58;;;;;;;16.38;7.57;;;9.00;99.90;;;;;;5067791;28;20664;-86
2022/10/26 03:14:24;;;;;;;12.93;7.22;;;9.00;99.90;;;;;;5070774;28;20045;-87
2022/10/26 03:16:49;;;;;;;13.77;6.95;;;8.90;99.90;;;;;;5058267;28;20079;-87
2022/10/26 03:19:15;;;;;;;13.90;7.53;;;9.00;99.90;;;;;;5061839;28;20059;-86
2022/10/26 03:21:41;;;;;;;13.15;7.15;;;9.00;99.90;;;;;;5058372;28;20056;-86
2022/10/26 03:24:08;;;;;;;17.77;7.47;;;9.00;99.90;;;;;;5042883;28;20048;-87
2022/10/26 03:26:33;;;;;;;16.35;8.02;;;9.00;99.90;;;;;;5063026;28;20041;-87
2022/10/26 03:28:59;;;;;;;13.00;7.32;;;9.00;99.90;;;;;;5070994;28;20052;-87
2022/10/26 03:31:25;;;;;;;13.80;6.40;;;9.00;99.90;;;;;;5046185;28;20057;-87
2022/10/26 03:33:51;;;;;;;16.98;7.95;;;9.00;99.90;;;;;;5034208;28;20041;-87
2022/10/26 03:36:16;;;;;;;21.67;8.27;;;9.10;99.90;;;;;;5057520;28;20057;-86
2022/10/26 03:38:42;;;;;;;17.05;8.35;;;9.10;99.90;;;;;;5065504;28;20054;-87
2022/10/26 03:41:08;;;;;;;16.90;7.88;;;9.10;99.90;;;;;;5076446;28;20048;-86
2022/10/26 03:43:33;;;;;;;22.38;8.13;;;9.10;99.90;;;;;;5050564;28;20045;-87
2022/10/26 03:45:59;;;;;;;17.17;8.23;;;9.10;99.90;;;;;;5059896;28;20040;-86
2022/10/26 03:48:25;;;;;;;13.32;6.82;;;9.10;99.90;;;;;;5063535;28;20040;-86
2022/10/26 03:50:50;;;;;;;14.77;7.53;;;9.10;99.90;;;;;;5060788;28;20102;-86
2022/10/26 03:53:16;;;;;;;16.50;7.15;;;9.10;99.90;;;;;;5069169;28;21193;-86
2022/10/26 03:55:45;;;;;;;18.88;8.55;;;9.10;99.90;;;;;;5063997;28;20096;-86
2022/10/26 03:58:10;;;;;;;18.95;8.15;;;9.10;99.90;;;;;;5057948;28;20048;-86
2022/10/26 04:00:36;;;;;;;20.35;8.60;;;9.10;99.90;;;;;;5040472;28;20511;-86
2022/10/26 04:03:02;;;;;;;14.32;7.75;;;9.10;99.90;;;;;;5059457;28;20080;-86
2022/10/26 04:05:28;;;;;;;17.25;8.45;;;9.10;99.90;;;;;;5040637;28;20068;-86
2022/10/26 04:07:59;;;;;;;18.58;7.50;;;9.10;99.90;;;;;;5064803;28;20040;-86
2022/10/26 04:10:26;;;;;;;20.95;8.45;;;9.10;99.90;;;;;;5061334;28;20111;-86
2022/10/26 04:12:52;;;;;;;16.98;8.20;;;9.20;99.90;;;;;;5044222;28;20104;-87
2022/10/26 04:15:18;;;;;;;14.63;7.78;;;9.20;99.90;;;;;;5063345;28;20045;-86
2022/10/26 04:17:45;;;;;;;16.27;8.75;;;9.30;99.90;;;;;;5069403;28;20045;-87
2022/10/26 04:20:11;;;;;;;18.52;9.48;;;9.30;99.90;;;;;;5061516;28;20044;-86
2022/10/26 04:22:37;;;;;;;19.88;9.80;;;9.40;99.90;;;;;;5060540;28;20100;-87
2022/10/26 04:25:06;;;;;;;18.90;8.73;;;9.40;99.90;;;;;;5076220;28;20047;-86
2022/10/26 04:27:32;;;;;;;20.95;8.43;;;9.50;99.90;;;;;;5062647;28;20033;-88
2022/10/26 04:29:58;;;;;;;16.60;8.70;;;9.50;99.90;;;;;;5058256;28;20080;-88
2022/10/26 04:32:23;;;;;;;19.75;8.98;;;9.50;99.90;;;;;;5059327;28;20060;-88
2022/10/26 04:34:49;;;;;;;16.90;8.75;;;9.60;99.90;;;;;;5056481;28;20680;-87
2022/10/26 04:37:15;;;;;;;18.55;8.45;;;9.60;99.90;;;;;;5062302;28;20048;-87
2022/10/26 04:39:40;;;;;;;17.02;7.88;;;9.70;99.90;;;;;;5040105;28;20064;-89
2022/10/26 04:42:06;;;;;;;19.77;8.77;;;9.70;99.90;;;;;;5054685;28;20049;-89
2022/10/26 04:44:32;;;;;;;18.48;7.80;;;9.80;99.90;;;;;;5071748;28;20094;-89
2022/10/26 04:46:57;;;;;;;13.00;7.20;;;9.70;99.90;;;;;;5065767;28;20127;-91
2022/10/26 04:49:23;;;;;;;15.90;7.95;;;9.80;99.90;;;;;;5058076;28;20056;-88
2022/10/26 04:51:49;;;;;;;20.13;9.05;;;9.80;99.90;;;;;;5057836;28;20102;-88
2022/10/26 04:54:14;;;;;;;17.20;8.80;;;9.90;99.90;;;;;;5074420;28;20052;-88
2022/10/26 04:56:40;;;;;;;24.13;7.53;;;9.90;99.90;;;;;;5049283;28;20048;-89
2022/10/26 04:59:05;;;;;;;18.35;8.27;;;9.90;99.90;;;;;;5058140;28;20044;-88
2022/10/26 05:01:31;;;;;;;16.33;8.10;;;9.90;99.90;;;;;;5075931;28;20052;-89
2022/10/26 05:03:57;;;;;;;15.95;7.57;;;9.90;99.90;;;;;;5091684;28;20025;-89
2022/10/26 05:06:23;;;;;;;18.48;7.18;;;10.00;99.90;;;;;;5066164;28;20064;-88
2022/10/26 05:08:48;;;;;;;15.20;7.13;;;10.00;99.90;;;;;;5032627;28;20037;-88
2022/10/26 05:11:14;;;;;;;13.40;7.70;;;10.00;99.90;;;;;;5073401;28;20037;-88
2022/10/26 05:13:40;;;;;;;12.88;7.10;;;10.10;99.90;;;;;;5044827;28;20069;-91
2022/10/26 05:16:06;;;;;;;16.20;7.30;;;10.00;99.90;;;;;;5051515;28;20506;-87
2022/10/26 05:18:32;;;;;;;17.38;7.55;;;10.10;99.90;;;;;;5050963;28;20450;-87
2022/10/26 05:20:58;;;;;;;14.93;7.05;;;10.10;99.90;;;;;;5062857;28;20053;-87
2022/10/26 05:23:23;;;;;;;14.07;7.30;;;10.20;99.90;;;;;;5062687;28;20125;-87
2022/10/26 05:25:49;;;;;;;16.10;7.60;;;10.20;99.90;;;;;;5062127;28;20064;-88
2022/10/26 05:28:16;;;;;;;13.32;7.35;;;10.20;99.90;;;;;;5073700;28;20092;-87
2022/10/26 05:30:43;;;;;;;18.23;7.50;;;10.20;99.90;;;;;;5075713;28;20067;-86
2022/10/26 05:33:10;;;;;;;15.05;7.18;;;10.20;99.90;;;;;;5070616;28;20049;-87
2022/10/26 05:35:36;;;;;;;10.38;5.70;;;10.30;99.90;;;;;;5065775;28;20055;-86
2022/10/26 05:38:11;;;;;;;11.57;6.88;;;10.30;99.90;;;;;;5061707;28;20053;-87
2022/10/26 05:40:37;;;;;;;15.88;7.00;;;10.30;99.90;;;;;;5059984;28;20044;-87
2022/10/26 05:43:03;;;;;;;12.50;6.88;;;10.40;99.90;;;;;;5064517;28;20048;-87
2022/10/26 05:45:29;;;;;;;13.00;7.10;;;10.40;99.90;;;;;;5063683;28;20043;-87
2022/10/26 05:47:55;;;;;;;16.95;7.45;;;10.40;99.90;;;;;;5065283;28;20048;-85
2022/10/26 05:50:20;;;;;;;13.30;6.78;;;10.40;99.90;;;;;;5067085;28;20045;-85
2022/10/26 05:52:47;;;;;;;14.70;7.53;;;10.40;99.90;;;;;;5042430;28;20565;-86
2022/10/26 05:55:15;;;;;;;13.93;6.65;;;10.40;99.90;;;;;;5071612;28;20056;-86
2022/10/26 05:57:41;;;;;;;16.75;7.53;;;10.40;99.90;;;;;;5069189;28;20056;-86
2022/10/26 06:00:08;;;;;;;15.15;7.18;;;10.40;99.90;;;;;;5041165;28;20053;-85
2022/10/26 06:02:55;;;;;;;13.52;5.50;;;10.40;99.90;;;;;;5065742;28;20112;-85
2022/10/26 06:05:25;;;;;;;16.60;7.10;;;10.40;99.90;;;;;;5069163;28;20079;-85
2022/10/26 06:07:51;;;;;;;13.77;7.07;;;10.40;99.90;;;;;;5067161;28;20491;-86
2022/10/26 06:10:17;;;;;;;14.20;6.60;;;10.40;99.90;;;;;;5079806;28;20067;-87
2022/10/26 06:12:44;;;;;;;12.68;6.05;;;10.40;99.90;;;;;;5077233;28;20128;-88
2022/10/26 06:15:20;;;;;;;15.43;7.43;;;10.40;99.90;;;;;;5060260;28;20114;-88
2022/10/26 06:18:18;;;;;;;18.20;7.25;;;10.40;99.90;;;;;;5066014;28;20041;-87
2022/10/26 06:21:03;;;;;;;15.48;6.20;;;10.40;99.90;;;;;;5061622;28;20061;-87
2022/10/26 06:23:49;;;;;;;12.65;6.68;;;10.40;99.90;;;;;;5059495;28;20048;-88
2022/10/26 06:26:33;;;;;;;14.70;6.22;;;10.40;99.90;;;;;;5050772;28;20056;-87
2022/10/26 06:29:13;;;;;;;11.93;6.00;;;10.50;99.90;;;;;;5060303;28;20060;-87
2022/10/26 06:31:39;;;;;;;9.65;5.28;;;10.50;99.90;;;;;;5057950;28;20530;-87
2022/10/26 06:34:05;;;;;;;10.65;5.43;;;10.60;99.90;;;;;;5059301;28;20060;-88
2022/10/26 06:36:32;;;;;;;11.57;5.00;;;10.50;99.90;;;;;;5054875;28;20104;-87
2022/10/26 06:39:03;;;;;;;10.05;4.85;;;10.50;99.90;;;;;;5062534;28;20049;-88
2022/10/26 06:41:34;;;;;;;12.57;5.88;;;10.50;99.90;;;;;;5079900;28;20090;-87
2022/10/26 06:44:01;;;;;;;9.68;5.07;;;10.50;99.90;;;;;;5077078;28;20681;-88
2022/10/26 06:47:12;;;;;;;26.23;9.38;;;10.50;99.90;;;;;;5073245;28;20479;-88
2022/10/26 06:50:02;;;;;;;12.55;5.07;;;10.60;99.90;;;;;;5073078;28;20115;-87
2022/10/26 06:52:34;;;;;;;11.00;5.18;;;10.60;99.90;;;;;;5078405;28;20111;-87
2022/10/26 06:55:00;;;;;;;11.25;4.80;;;10.60;99.90;;;;;;5079814;28;20268;-87
2022/10/26 06:57:35;;;;;;;10.05;5.20;;;10.60;99.90;;;;;;5063967;28;20088;-88
2022/10/26 07:00:15;;;;;;;14.38;5.57;;;10.70;99.90;;;;;;5058110;28;20521;-87
2022/10/26 07:02:41;;;;;;;11.73;5.47;;;10.80;99.90;;;;;;5060497;28;20117;-88
2022/10/26 07:05:11;;;;;;;13.07;4.80;;;10.90;99.90;;;;;;5061674;28;20053;-87
2022/10/26 07:07:43;;;;;;;8.57;4.90;;;10.90;99.90;;;;;;5068963;28;20064;-88
2022/10/26 07:10:10;;;;;;;9.30;4.95;;;11.00;99.90;;;;;;5058067;28;20049;-87
2022/10/26 07:12:36;;;;;;;9.13;4.68;;;11.10;99.90;;;;;;5058808;28;20056;-88
2022/10/26 07:15:03;;;;;;;11.73;4.90;;;11.10;99.90;;;;;;5067515;28;20045;-88
2022/10/26 07:17:29;;;;;;;10.52;5.35;;;11.20;99.90;;;;;;5076725;28;20048;-87
2022/10/26 07:19:55;;;;;;;7.80;5.13;;;11.20;99.90;;;;;;5045834;28;20058;-87
2022/10/26 07:22:21;;;;;;;9.57;4.88;;;11.30;99.90;;;;;;5056351;28;20109;-88
2022/10/26 07:24:50;;;;;;;8.32;4.22;;;11.30;99.90;;;;;;5042838;28;20053;-88
2022/10/26 07:27:20;;;;;;;7.95;4.18;;;11.30;99.90;;;;;;5062187;28;20410;-87
2022/10/26 07:29:46;;;;;;;14.13;5.25;;;11.40;99.90;;;;;;5065559;28;20420;-88
2022/10/26 07:32:11;;;;;;;9.55;5.05;;;11.40;99.90;;;;;;5064445;28;20400;-87
2022/10/26 07:34:37;;;;;;;10.45;5.13;;;11.40;99.90;;;;;;5061213;28;20183;-88
2022/10/26 07:37:03;;;;;;;9.55;4.32;;;11.50;99.90;;;;;;5066736;28;20048;-87
2022/10/26 07:39:31;;;;;;;10.85;4.65;;;11.60;99.90;;;;;;5067986;28;20112;-89
2022/10/26 07:41:57;;;;;;;8.20;4.10;;;11.60;99.90;;;;;;5066487;28;20087;-87
2022/10/26 07:44:23;;;;;;;12.43;4.65;;;11.70;99.90;;;;;;5061304;28;20044;-87
2022/10/26 07:46:48;;;;;;;10.00;4.20;;;11.80;99.90;;;;;;5067578;28;20520;-88
2022/10/26 07:49:14;;;;;;;7.03;4.57;;;11.90;99.90;;;;;;5066100;28;20051;-87
2022/10/26 07:51:40;;;;;;;12.70;4.57;;;11.90;99.90;;;;;;5065252;28;20102;-87
2022/10/26 07:54:06;;;;;;;9.70;5.20;;;12.00;99.90;;;;;;5053486;28;20068;-87
2022/10/26 07:56:31;;;;;;;12.90;5.30;;;12.20;99.90;;;;;;5064786;28;20045;-87
2022/10/26 07:58:57;;;;;;;7.95;3.95;;;12.30;99.90;;;;;;5073288;28;20056;-87
2022/10/26 08:01:23;;;;;;;10.65;3.70;;;12.40;99.90;;;;;;5067096;28;20503;-88
2022/10/26 08:03:52;;;;;;;7.97;3.75;;;12.50;99.90;;;;;;5067181;28;20049;-87
2022/10/26 08:06:18;;;;;;;6.60;3.70;;;12.70;99.90;;;;;;5043863;28;20039;-87
2022/10/26 08:08:45;;;;;;;10.98;3.60;;;12.80;99.90;;;;;;5065819;28;20070;-87
2022/10/26 08:11:10;;;;;;;11.13;4.00;;;12.90;99.90;;;;;;5064348;28;20036;-87
2022/10/26 08:13:36;;;;;;;12.02;3.97;;;12.90;99.90;;;;;;5064930;28;20049;-87
2022/10/26 08:16:04;;;;;;;4.93;3.05;;;12.90;99.90;;;;;;5069938;28;20048;-87
2022/10/26 08:18:30;;;;;;;7.28;3.92;;;13.00;99.90;;;;;;5042837;28;20048;-87
2022/10/26 08:21:01;;;;;;;11.00;3.97;;;13.00;99.90;;;;;;5077301;28;20128;-88
2022/10/26 08:23:27;;;;;;;11.98;3.78;;;13.00;99.90;;;;;;5074317;28;20045;-88
2022/10/26 08:25:57;;;;;;;6.25;3.30;;;12.90;99.90;;;;;;5090824;28;20088;-88
2022/10/26 08:28:23;;;;;;;7.25;4.53;;;12.90;99.90;;;;;;5042696;28;20119;-87
2022/10/26 08:30:49;;;;;;;7.28;3.72;;;12.90;99.90;;;;;;5057958;28;20423;-88
2022/10/26 08:33:14;;;;;;;13.48;3.72;;;12.80;99.90;;;;;;5089372;28;20053;-88
2022/10/26 08:35:40;;;;;;;10.85;3.90;;;12.70;99.90;;;;;;5060080;28;20041;-87
2022/10/26 08:38:06;;;;;;;12.95;3.95;;;12.70;99.90;;;;;;5041621;28;20076;-88
2022/10/26 08:40:35;;;;;;;5.93;2.95;;;12.80;99.90;;;;;;5041309;28;20071;-87
2022/10/26 08:43:06;;;;;;;7.80;3.10;;;12.80;99.90;;;;;;5061207;28;20052;-86
2022/10/26 08:45:37;;;;;;;8.05;3.42;;;12.80;99.90;;;;;;5075229;28;20044;-86
2022/10/26 08:48:23;;;;;;;10.07;4.30;;;12.90;99.90;;;;;;5068426;28;20575;-86
2022/10/26 08:51:01;;;;;;;8.30;3.20;;;13.00;99.90;;;;;;5060357;28;20461;-86
2022/10/26 08:53:46;;;;;;;9.38;4.45;;;13.00;99.90;;;;;;5040623;28;20047;-87
2022/10/26 08:56:20;;;;;;;10.77;3.70;;;13.10;99.90;;;;;;5060324;28;20411;-87
2022/10/26 08:58:52;;;;;;;7.03;3.15;;;13.30;99.90;;;;;;5083615;28;20048;-87
2022/10/26 09:01:18;;;;;;;10.98;3.50;;;13.40;99.90;;;;;;5061632;28;20043;-87
2022/10/26 09:03:43;;;;;;;6.65;3.25;;;13.50;99.90;;;;;;5079166;28;20076;-88
2022/10/26 09:06:42;;;;;;;8.95;3.28;;;13.80;99.90;;;;;;5047544;28;20090;-87
2022/10/26 09:09:11;;;;;;;10.27;3.60;;;13.90;99.90;;;;;;5069201;28;20056;-87
2022/10/26 09:12:00;;;;;;;6.07;3.53;;;14.10;99.90;;;;;;5061848;28;20041;-88
2022/10/26 09:14:50;;;;;;;5.50;2.78;;;14.30;99.90;;;;;;5072788;28;20100;-87
2022/10/26 09:17:37;;;;;;;7.88;3.78;;;14.60;99.90;;;;;;5064279;28;20045;-87
2022/10/26 09:20:45;;;;;;;4.30;2.72;;;14.80;99.90;;;;;;5050984;28;20049;-87
2022/10/26 09:23:36;;;;;;;11.32;3.42;;;14.90;99.90;;;;;;5061804;28;20091;-86
2022/10/26 09:26:04;;;;;;;10.93;2.57;;;15.00;99.90;;;;;;5077435;28;20111;-87
2022/10/26 09:28:34;;;;;;;5.15;3.13;;;15.10;99.90;;;;;;5061258;28;20468;-86
2022/10/26 09:31:01;;;;;;;2.92;2.22;;;15.30;99.90;;;;;;5060547;28;20052;-86
2022/10/26 09:33:29;;;;;;;8.02;3.05;;;15.50;99.90;;;;;;5078524;28;20070;-86
2022/10/26 09:36:02;;;;;;;7.15;2.20;;;16.10;99.90;;;;;;5079904;28;20499;-87
2022/10/26 09:38:31;;;;;;;5.30;2.83;;;17.00;99.90;;;;;;5080620;28;20056;-86
2022/10/26 09:41:05;;;;;;;8.30;2.70;;;17.80;99.90;;;;;;5064373;28;20105;-87
2022/10/26 09:43:37;;;;;;;8.18;2.78;;;18.20;99.90;;;;;;5042717;28;20495;-86
2022/10/26 09:46:03;;;;;;;8.13;4.15;;;17.90;99.90;;;;;;5080190;28;20044;-87
2022/10/26 09:48:35;;;;;;;8.20;2.90;;;17.50;99.90;;;;;;5080364;28;20044;-86
2022/10/26 09:51:01;;;;;;;7.32;2.63;;;17.30;99.90;;;;;;5070118;28;20422;-86
2022/10/26 09:53:27;;;;;;;6.88;2.67;;;17.00;99.90;;;;;;5076186;28;20129;-86
2022/10/26 09:56:04;;;;;;;8.00;2.90;;;16.90;99.90;;;;;;5056972;28;20036;-86
2022/10/26 09:58:34;;;;;;;6.47;2.45;;;16.80;99.90;;;;;;5079899;28;20049;-86
2022/10/26 10:01:00;;;;;;;4.22;2.15;;;16.70;99.90;;;;;;5056718;28;20087;-87
2022/10/26 10:03:31;;;;;;;4.50;2.22;;;16.80;99.90;;;;;;5067483;28;20036;-87
2022/10/26 10:06:17;;;;;;;5.75;2.78;;;16.80;99.90;;;;;;5063561;28;20183;-87
2022/10/26 10:08:45;;;;;;;5.47;2.55;;;17.00;99.90;;;;;;5067229;28;20025;-88
2022/10/26 10:11:13;;;;;;;4.10;2.20;;;17.10;99.90;;;;;;5066238;28;20053;-86
2022/10/26 10:13:44;;;;;;;7.63;2.60;;;17.10;99.90;;;;;;5065030;28;20037;-87
2022/10/26 10:16:17;;;;;;;9.55;2.40;;;17.20;99.90;;;;;;5070859;28;20110;-87
2022/10/26 10:18:55;;;;;;;5.00;1.65;;;17.20;99.90;;;;;;5083417;28;20040;-85
2022/10/26 10:21:52;;;;;;;5.75;2.08;;;17.30;99.90;;;;;;5076657;28;20067;-87
2022/10/26 10:24:24;;;;;;;3.67;1.85;;;17.40;99.90;;;;;;5062502;28;20483;-87
2022/10/26 10:27:03;;;;;;;4.18;1.60;;;17.50;99.90;;;;;;5064325;28;20629;-87
2022/10/26 10:29:31;;;;;;;7.30;2.08;;;17.50;99.90;;;;;;5073973;28;20072;-87
2022/10/26 10:32:02;;;;;;;3.42;1.90;;;17.50;99.90;;;;;;5090818;28;20084;-87
2022/10/26 10:34:31;;;;;;;3.35;2.00;;;17.50;99.90;;;;;;5059255;28;20045;-86
2022/10/26 10:36:59;;;;;;;6.80;1.65;;;17.50;99.90;;;;;;5061674;28;20051;-86
2022/10/26 10:39:36;;;;;;;6.15;1.80;;;17.50;99.90;;;;;;5093462;28;20056;-87
2022/10/26 10:42:06;;;;;;;4.60;1.80;;;17.50;99.90;;;;;;5080216;28;20050;-87
2022/10/26 10:44:32;;;;;;;3.53;1.73;;;17.60;99.90;;;;;;5079079;28;20070;-87
2022/10/26 10:47:02;;;;;;;4.22;1.50;;;17.60;99.90;;;;;;5074311;28;20455;-86
2022/10/26 10:49:29;;;;;;;5.07;1.50;;;17.60;99.90;;;;;;5068382;28;20052;-86
2022/10/26 10:51:56;;;;;;;2.03;1.45;;;17.60;99.90;;;;;;5069902;28;20052;-86
2022/10/26 10:54:28;;;;;;;2.70;1.52;;;17.70;99.90;;;;;;5060126;28;20135;-86
2022/10/26 10:57:29;;;;;;;3.92;2.10;;;17.70;99.90;;;;;;5064698;28;20048;-86
2022/10/26 11:00:08;;;;;;;2.85;1.50;;;17.80;99.90;;;;;;5078869;28;20056;-86
2022/10/26 11:02:39;;;;;;;3.65;1.63;;;17.80;99.90;;;;;;5066418;28;20143;-86
2022/10/26 11:05:17;;;;;;;4.22;1.52;;;17.80;99.90;;;;;;5073463;28;20503;-86
2022/10/26 11:08:11;;;;;;;4.38;1.23;;;17.80;99.90;;;;;;5083114;28;20051;-86
2022/10/26 11:10:42;;;;;;;6.97;1.90;;;17.80;99.90;;;;;;5055664;28;20099;-85
2022/10/26 11:13:47;;;;;;;4.80;1.85;;;17.90;99.90;;;;;;5043650;28;20060;-86
2022/10/26 11:16:19;;;;;;;3.60;1.90;;;17.90;99.90;;;;;;5044249;28;20060;-85
2022/10/26 11:18:50;;;;;;;5.40;1.90;;;18.10;99.90;;;;;;5058859;28;20060;-86
2022/10/26 11:21:29;;;;;;;1.73;1.25;;;18.20;99.90;;;;;;5058512;28;20063;-86
2022/10/26 11:24:20;;;;;;;3.90;1.63;;;18.30;99.90;;;;;;5066453;28;20538;-85
2022/10/26 11:27:04;;;;;;;1.93;1.50;;;18.30;99.90;;;;;;5059061;28;20053;-85
2022/10/26 11:29:46;;;;;;;4.93;1.73;;;18.40;99.90;;;;;;5077956;28;20055;-85
2022/10/26 11:32:36;;;;;;;4.25;1.50;;;18.40;99.90;;;;;;5053192;28;20095;-86
2022/10/26 11:35:30;;;;;;;2.30;1.50;;;18.50;99.90;;;;;;5070631;28;20503;-86
2022/10/26 11:38:12;;;;;;;1.80;1.35;;;18.50;99.90;;;;;;5063454;28;20080;-87
2022/10/26 11:40:51;;;;;;;3.95;1.50;;;18.60;99.90;;;;;;5076863;28;20399;-87
2022/10/26 11:43:36;;;;;;;6.63;2.08;;;18.60;99.90;;;;;;5048853;28;20055;-87
2022/10/26 11:46:22;;;;;;;7.57;2.50;;;18.60;99.90;;;;;;5065858;28;20053;-86
2022/10/26 11:49:03;;;;;;;5.60;1.90;;;18.70;99.90;;;;;;5060429;28;20080;-86
2022/10/26 11:51:29;;;;;;;6.63;2.17;;;18.70;99.90;;;;;;5064855;28;20143;-87
2022/10/26 11:53:59;;;;;;;2.78;1.42;;;18.70;99.90;;;;;;5042809;28;20380;-86
2022/10/26 11:56:36;;;;;;;5.10;1.50;;;18.70;99.90;;;;;;5055326;28;20105;-87
2022/10/26 11:59:03;;;;;;;4.68;1.73;;;18.80;99.90;;;;;;5065090;28;20130;-87
2022/10/26 12:01:29;;;;;;;5.60;1.63;;;18.90;99.90;;;;;;5060249;28;20064;-86
2022/10/26 12:03:58;;;;;;;4.45;1.73;;;18.90;99.90;;;;;;5061981;28;20135;-86
2022/10/26 12:06:28;;;;;;;8.40;2.08;;;19.00;99.90;;;;;;5059765;28;20045;-88
2022/10/26 12:08:58;;;;;;;5.80;1.75;;;19.00;99.90;;;;;;5063632;28;20045;-87
2022/10/26 12:11:52;;;;;;;6.18;2.40;;;18.90;99.90;;;;;;5065166;28;20055;-87
2022/10/26 12:14:31;;;;;;;3.15;1.88;;;18.90;99.90;;;;;;5080504;28;20049;-88
2022/10/26 12:17:10;;;;;;;5.10;1.70;;;18.90;99.90;;;;;;5063478;28;20048;-87
2022/10/26 12:19:45;;;;;;;3.83;1.70;;;18.90;99.90;;;;;;5058182;28;20045;-88
2022/10/26 12:22:15;;;;;;;6.07;2.70;;;18.90;99.90;;;;;;5061046;28;20533;-88
2022/10/26 12:24:45;;;;;;;3.78;2.40;;;19.00;99.90;;;;;;5065738;28;20045;-88
2022/10/26 12:27:38;;;;;;;6.43;3.45;;;19.00;99.90;;;;;;5046743;28;20053;-88
2022/10/26 12:30:17;;;;;;;2.50;1.80;;;19.10;99.90;;;;;;5054698;28;20045;-88
2022/10/26 12:32:42;;;;;;;5.50;2.42;;;19.10;99.90;;;;;;5066993;28;20082;-87
2022/10/26 12:35:35;;;;;;;3.55;2.03;;;19.00;99.90;;;;;;5063658;28;20049;-87
2022/10/26 12:38:20;;;;;;;5.63;2.00;;;19.00;99.90;;;;;;5076034;28;20040;-88
2022/10/26 12:40:47;;;;;;;5.53;2.05;;;19.10;99.90;;;;;;5074084;28;20048;-89
2022/10/26 12:43:13;;;;;;;6.78;2.20;;;19.00;99.90;;;;;;5063674;28;20112;-87
2022/10/26 12:46:06;;;;;;;3.65;1.92;;;19.00;99.90;;;;;;5075375;28;20051;-89
2022/10/26 12:48:39;;;;;;;3.65;1.70;;;19.10;99.90;;;;;;5073080;28;20056;-88
2022/10/26 12:51:24;;;;;;;4.82;2.10;;;19.20;99.90;;;;;;5065833;28;20106;-88
2022/10/26 12:53:56;;;;;;;3.20;1.80;;;19.20;99.90;;;;;;5047672;28;20614;-88
2022/10/26 12:56:31;;;;;;;5.90;2.40;;;19.20;99.90;;;;;;5074223;28;20049;-88
2022/10/26 12:59:02;;;;;;;4.82;1.75;;;19.20;99.90;;;;;;5082065;28;20076;-87
2022/10/26 13:01:38;;;;;;;7.22;2.85;;;19.20;99.90;;;;;;5072893;28;20124;-87
2022/10/26 13:04:18;;;;;;;7.40;2.22;;;19.20;99.90;;;;;;5067008;28;20056;-88
2022/10/26 13:07:21;;;;;;;5.10;1.95;;;19.10;99.90;;;;;;5077135;28;20067;-87
2022/10/26 13:09:57;;;;;;;5.45;2.03;;;19.10;99.90;;;;;;5058877;28;20052;-87
2022/10/26 13:12:25;;;;;;;4.63;1.90;;;19.10;99.90;;;;;;5077911;28;20087;-88
2022/10/26 13:14:57;;;;;;;4.25;1.98;;;19.00;99.90;;;;;;5060678;28;20048;-87
2022/10/26 13:17:26;;;;;;;5.05;2.17;;;19.00;99.90;;;;;;5061338;28;20075;-88
2022/10/26 13:20:07;;;;;;;7.95;2.33;;;19.00;99.90;;;;;;5061127;28;20052;-88
2022/10/26 13:22:32;;;;;;;6.00;2.45;;;18.90;99.90;;;;;;5059505;28;20059;-88
2022/10/26 13:25:04;;;;;;;6.15;2.65;;;18.90;99.90;;;;;;5061956;28;20053;-87
2022/10/26 13:27:33;;;;;;;7.57;3.50;;;18.90;99.90;;;;;;5063283;28;20052;-88
2022/10/26 13:30:20;;;;;;;5.03;1.85;;;19.00;99.90;;;;;;5080323;28;20146;-88
2022/10/26 13:32:55;;;;;;;6.15;2.28;;;19.10;99.90;;;;;;5080925;28;20086;-88
2022/10/26 13:35:23;;;;;;;7.45;3.22;;;19.20;99.90;;;;;;5078922;28;20050;-87
2022/10/26 13:37:52;;;;;;;9.13;2.72;;;19.20;99.90;;;;;;5060321;28;20083;-88
2022/10/26 13:40:26;;;;;;;6.28;2.65;;;19.20;99.90;;;;;;5049623;28;20075;-88
2022/10/26 13:42:57;;;;;;;7.60;2.42;;;19.00;99.90;;;;;;5062516;28;20063;-88